sensor_id;sensor_type;location;lat;lon;timestamp;P1;durP1;ratioP1;P2;durP2;ratioP2
36839;SDS011;24406;51.640;9.566;2023-07-22T00:00:32;26.48;;;17.48;;
36839;SDS011;24406;51.640;9.566;2023-07-22T00:05:33;21.15;;;16.48;;
36839;SDS011;24406;51.640;9.566;2023-07-22T00:10:35;19.88;;;17.63;;
36839;SDS011;24406;51.640;9.566;2023-07-22T00:15:43;16.30;;;14.55;;
36839;SDS011;24406;51.640;9.566;2023-07-22T00:20:44;23.27;;;15.70;;
36839;SDS011;24406;51.640;9.566;2023-07-22T00:25:46;16.85;;;14.88;;
36839;SDS011;24406;51.640;9.566;2023-07-22T00:30:49;15.27;;;13.93;;
36839;SDS011;24406;51.640;9.566;2023-07-22T00:35:53;22.02;;;15.00;;
36839;SDS011;24406;51.640;9.566;2023-07-22T00:40:55;19.50;;;14.60;;
36839;SDS011;24406;51.640;9.566;2023-07-22T00:45:58;17.40;;;13.95;;
36839;SDS011;24406;51.640;9.566;2023-07-22T00:51:00;16.15;;;13.95;;
36839;SDS011;24406;51.640;9.566;2023-07-22T00:56:01;17.38;;;12.77;;
36839;SDS011;24406;51.640;9.566;2023-07-22T01:01:04;27.23;;;14.55;;
36839;SDS011;24406;51.640;9.566;2023-07-22T01:06:07;20.17;;;14.18;;
36839;SDS011;24406;51.640;9.566;2023-07-22T01:11:09;20.58;;;14.45;;
36839;SDS011;24406;51.640;9.566;2023-07-22T01:16:12;18.75;;;12.30;;
36839;SDS011;24406;51.640;9.566;2023-07-22T01:21:13;25.67;;;12.75;;
36839;SDS011;24406;51.640;9.566;2023-07-22T01:26:17;24.55;;;14.65;;
36839;SDS011;24406;51.640;9.566;2023-07-22T01:31:18;23.75;;;14.52;;
36839;SDS011;24406;51.640;9.566;2023-07-22T01:36:20;15.35;;;13.38;;
36839;SDS011;24406;51.640;9.566;2023-07-22T01:41:22;18.77;;;15.20;;
36839;SDS011;24406;51.640;9.566;2023-07-22T01:46:24;15.93;;;14.25;;
36839;SDS011;24406;51.640;9.566;2023-07-22T01:51:26;14.60;;;12.43;;
36839;SDS011;24406;51.640;9.566;2023-07-22T01:56:28;17.63;;;13.45;;
36839;SDS011;24406;51.640;9.566;2023-07-22T02:01:30;16.48;;;13.45;;
36839;SDS011;24406;51.640;9.566;2023-07-22T02:06:31;20.75;;;13.82;;
36839;SDS011;24406;51.640;9.566;2023-07-22T02:11:36;18.70;;;11.63;;
36839;SDS011;24406;51.640;9.566;2023-07-22T02:16:37;18.40;;;12.77;;
36839;SDS011;24406;51.640;9.566;2023-07-22T02:21:39;21.30;;;12.93;;
36839;SDS011;24406;51.640;9.566;2023-07-22T02:26:42;22.15;;;13.15;;
36839;SDS011;24406;51.640;9.566;2023-07-22T02:31:43;18.30;;;11.55;;
36839;SDS011;24406;51.640;9.566;2023-07-22T02:36:46;16.67;;;12.13;;
36839;SDS011;24406;51.640;9.566;2023-07-22T02:41:49;15.15;;;11.32;;
36839;SDS011;24406;51.640;9.566;2023-07-22T02:46:51;14.75;;;10.57;;
36839;SDS011;24406;51.640;9.566;2023-07-22T02:51:52;22.58;;;11.43;;
36839;SDS011;24406;51.640;9.566;2023-07-22T02:56:55;22.88;;;11.27;;
36839;SDS011;24406;51.640;9.566;2023-07-22T03:01:57;11.95;;;10.52;;
36839;SDS011;24406;51.640;9.566;2023-07-22T03:06:58;12.80;;;9.93;;
36839;SDS011;24406;51.640;9.566;2023-07-22T03:12:02;21.63;;;11.80;;
36839;SDS011;24406;51.640;9.566;2023-07-22T03:17:04;21.48;;;11.65;;
36839;SDS011;24406;51.640;9.566;2023-07-22T03:22:06;13.15;;;11.13;;
36839;SDS011;24406;51.640;9.566;2023-07-22T03:27:09;15.68;;;8.88;;
36839;SDS011;24406;51.640;9.566;2023-07-22T03:32:10;107.15;;;12.32;;
36839;SDS011;24406;51.640;9.566;2023-07-22T03:37:12;46.75;;;12.30;;
36839;SDS011;24406;51.640;9.566;2023-07-22T03:42:16;42.22;;;12.55;;
36839;SDS011;24406;51.640;9.566;2023-07-22T03:47:18;21.85;;;11.95;;
36839;SDS011;24406;51.640;9.566;2023-07-22T03:52:20;23.90;;;14.07;;
36839;SDS011;24406;51.640;9.566;2023-07-22T03:57:26;24.55;;;14.27;;
36839;SDS011;24406;51.640;9.566;2023-07-22T04:02:27;18.48;;;14.30;;
36839;SDS011;24406;51.640;9.566;2023-07-22T04:07:29;22.35;;;16.95;;
36839;SDS011;24406;51.640;9.566;2023-07-22T04:12:32;25.75;;;15.70;;
36839;SDS011;24406;51.640;9.566;2023-07-22T04:17:34;18.00;;;15.18;;
36839;SDS011;24406;51.640;9.566;2023-07-22T04:22:36;18.92;;;14.68;;
36839;SDS011;24406;51.640;9.566;2023-07-22T04:27:39;17.48;;;12.88;;
36839;SDS011;24406;51.640;9.566;2023-07-22T04:32:40;20.50;;;14.30;;
36839;SDS011;24406;51.640;9.566;2023-07-22T04:37:42;22.30;;;13.20;;
36839;SDS011;24406;51.640;9.566;2023-07-22T04:42:44;14.63;;;13.05;;
36839;SDS011;24406;51.640;9.566;2023-07-22T04:47:46;20.58;;;12.85;;
36839;SDS011;24406;51.640;9.566;2023-07-22T04:52:49;15.20;;;12.20;;
36839;SDS011;24406;51.640;9.566;2023-07-22T04:57:51;14.52;;;13.13;;
36839;SDS011;24406;51.640;9.566;2023-07-22T05:02:53;17.13;;;12.93;;
36839;SDS011;24406;51.640;9.566;2023-07-22T05:07:56;13.82;;;11.98;;
36839;SDS011;24406;51.640;9.566;2023-07-22T05:12:59;19.45;;;14.45;;
36839;SDS011;24406;51.640;9.566;2023-07-22T05:18:00;18.05;;;13.77;;
36839;SDS011;24406;51.640;9.566;2023-07-22T05:23:02;25.02;;;14.48;;
36839;SDS011;24406;51.640;9.566;2023-07-22T05:28:05;26.25;;;13.15;;
36839;SDS011;24406;51.640;9.566;2023-07-22T05:33:07;18.52;;;13.80;;
36839;SDS011;24406;51.640;9.566;2023-07-22T05:38:08;22.13;;;14.63;;
36839;SDS011;24406;51.640;9.566;2023-07-22T05:43:11;17.27;;;13.80;;
36839;SDS011;24406;51.640;9.566;2023-07-22T05:48:12;20.40;;;13.05;;
36839;SDS011;24406;51.640;9.566;2023-07-22T05:53:14;14.75;;;12.60;;
36839;SDS011;24406;51.640;9.566;2023-07-22T05:58:17;16.10;;;13.10;;
36839;SDS011;24406;51.640;9.566;2023-07-22T06:03:19;16.17;;;12.93;;
36839;SDS011;24406;51.640;9.566;2023-07-22T06:08:21;13.95;;;10.82;;
36839;SDS011;24406;51.640;9.566;2023-07-22T06:13:24;17.00;;;12.27;;
36839;SDS011;24406;51.640;9.566;2023-07-22T06:18:25;14.48;;;12.13;;
36839;SDS011;24406;51.640;9.566;2023-07-22T06:23:27;16.05;;;12.40;;
36839;SDS011;24406;51.640;9.566;2023-07-22T06:28:32;19.35;;;12.25;;
36839;SDS011;24406;51.640;9.566;2023-07-22T06:33:37;18.90;;;13.35;;
36839;SDS011;24406;51.640;9.566;2023-07-22T06:38:40;15.88;;;11.65;;
36839;SDS011;24406;51.640;9.566;2023-07-22T06:55:51;16.52;;;11.18;;
36839;SDS011;24406;51.640;9.566;2023-07-22T07:00:53;15.60;;;12.02;;
36839;SDS011;24406;51.640;9.566;2023-07-22T07:05:56;13.32;;;10.70;;
36839;SDS011;24406;51.640;9.566;2023-07-22T07:11:00;15.80;;;11.40;;
36839;SDS011;24406;51.640;9.566;2023-07-22T07:21:21;15.68;;;10.80;;
36839;SDS011;24406;51.640;9.566;2023-07-22T07:26:24;16.50;;;10.85;;
36839;SDS011;24406;51.640;9.566;2023-07-22T07:31:25;13.63;;;11.43;;
36839;SDS011;24406;51.640;9.566;2023-07-22T07:36:27;11.20;;;9.50;;
36839;SDS011;24406;51.640;9.566;2023-07-22T07:41:30;15.18;;;10.52;;
36839;SDS011;24406;51.640;9.566;2023-07-22T07:46:32;12.73;;;10.55;;
36839;SDS011;24406;51.640;9.566;2023-07-22T07:51:33;13.23;;;10.68;;
36839;SDS011;24406;51.640;9.566;2023-07-22T07:56:36;11.68;;;10.05;;
36839;SDS011;24406;51.640;9.566;2023-07-22T08:01:38;18.52;;;9.85;;
36839;SDS011;24406;51.640;9.566;2023-07-22T08:06:41;13.85;;;10.13;;
36839;SDS011;24406;51.640;9.566;2023-07-22T08:11:44;13.05;;;9.65;;
36839;SDS011;24406;51.640;9.566;2023-07-22T08:16:46;13.32;;;9.30;;
36839;SDS011;24406;51.640;9.566;2023-07-22T08:21:48;11.70;;;9.45;;
36839;SDS011;24406;51.640;9.566;2023-07-22T08:26:50;13.68;;;9.93;;
36839;SDS011;24406;51.640;9.566;2023-07-22T08:31:52;13.70;;;11.50;;
36839;SDS011;24406;51.640;9.566;2023-07-22T08:36:53;12.25;;;10.27;;
36839;SDS011;24406;51.640;9.566;2023-07-22T08:42:02;13.00;;;9.90;;
36839;SDS011;24406;51.640;9.566;2023-07-22T08:47:42;15.43;;;12.25;;
36839;SDS011;24406;51.640;9.566;2023-07-22T08:52:46;13.57;;;11.15;;
36839;SDS011;24406;51.640;9.566;2023-07-22T08:57:50;13.73;;;10.65;;
36839;SDS011;24406;51.640;9.566;2023-07-22T09:02:52;11.68;;;10.07;;
36839;SDS011;24406;51.640;9.566;2023-07-22T09:07:54;12.57;;;10.48;;
36839;SDS011;24406;51.640;9.566;2023-07-22T09:12:58;11.27;;;10.07;;
36839;SDS011;24406;51.640;9.566;2023-07-22T09:18:00;13.32;;;9.80;;
36839;SDS011;24406;51.640;9.566;2023-07-22T09:23:02;11.63;;;10.32;;
36839;SDS011;24406;51.640;9.566;2023-07-22T09:28:05;12.27;;;10.18;;
36839;SDS011;24406;51.640;9.566;2023-07-22T09:33:07;13.60;;;10.38;;
36839;SDS011;24406;51.640;9.566;2023-07-22T09:38:24;11.43;;;10.23;;
36839;SDS011;24406;51.640;9.566;2023-07-22T09:43:29;11.50;;;10.30;;
36839;SDS011;24406;51.640;9.566;2023-07-22T09:48:32;12.25;;;10.00;;
36839;SDS011;24406;51.640;9.566;2023-07-22T09:53:46;14.68;;;10.20;;
36839;SDS011;24406;51.640;9.566;2023-07-22T09:58:49;18.17;;;10.23;;
36839;SDS011;24406;51.640;9.566;2023-07-22T10:03:55;11.23;;;9.27;;
36839;SDS011;24406;51.640;9.566;2023-07-22T10:08:57;13.27;;;9.98;;
36839;SDS011;24406;51.640;9.566;2023-07-22T10:14:01;10.88;;;9.35;;
36839;SDS011;24406;51.640;9.566;2023-07-22T10:19:03;10.50;;;8.63;;
36839;SDS011;24406;51.640;9.566;2023-07-22T10:24:06;10.10;;;9.10;;
36839;SDS011;24406;51.640;9.566;2023-07-22T10:29:10;10.57;;;9.27;;
36839;SDS011;24406;51.640;9.566;2023-07-22T10:34:11;10.32;;;9.10;;
36839;SDS011;24406;51.640;9.566;2023-07-22T10:39:17;10.32;;;8.55;;
36839;SDS011;24406;51.640;9.566;2023-07-22T10:44:27;10.25;;;8.48;;
36839;SDS011;24406;51.640;9.566;2023-07-22T10:49:42;9.95;;;8.52;;
36839;SDS011;24406;51.640;9.566;2023-07-22T10:54:45;10.07;;;9.02;;
36839;SDS011;24406;51.640;9.566;2023-07-22T10:59:50;10.23;;;8.30;;
36839;SDS011;24406;51.640;9.566;2023-07-22T11:04:52;10.38;;;9.27;;
36839;SDS011;24406;51.640;9.566;2023-07-22T11:09:53;10.80;;;9.50;;
36839;SDS011;24406;51.640;9.566;2023-07-22T11:15:01;11.55;;;8.30;;
36839;SDS011;24406;51.640;9.566;2023-07-22T11:20:05;10.55;;;8.43;;
36839;SDS011;24406;51.640;9.566;2023-07-22T11:25:07;9.55;;;8.27;;
36839;SDS011;24406;51.640;9.566;2023-07-22T11:30:12;10.20;;;7.93;;
36839;SDS011;24406;51.640;9.566;2023-07-22T11:35:15;9.02;;;8.13;;
36839;SDS011;24406;51.640;9.566;2023-07-22T11:40:17;8.98;;;8.07;;
36839;SDS011;24406;51.640;9.566;2023-07-22T11:45:19;9.55;;;8.55;;
36839;SDS011;24406;51.640;9.566;2023-07-22T11:50:30;7.80;;;7.00;;
36839;SDS011;24406;51.640;9.566;2023-07-22T11:55:34;8.48;;;7.53;;
36839;SDS011;24406;51.640;9.566;2023-07-22T12:00:37;11.52;;;6.82;;
36839;SDS011;24406;51.640;9.566;2023-07-22T12:05:43;9.40;;;7.90;;
36839;SDS011;24406;51.640;9.566;2023-07-22T12:10:45;8.90;;;6.68;;
36839;SDS011;24406;51.640;9.566;2023-07-22T12:16:01;7.57;;;6.80;;
36839;SDS011;24406;51.640;9.566;2023-07-22T12:21:04;7.57;;;6.43;;
36839;SDS011;24406;51.640;9.566;2023-07-22T12:26:06;7.82;;;5.80;;
36839;SDS011;24406;51.640;9.566;2023-07-22T12:31:09;6.45;;;5.85;;
36839;SDS011;24406;51.640;9.566;2023-07-22T12:36:10;5.95;;;5.45;;
36839;SDS011;24406;51.640;9.566;2023-07-22T12:41:12;8.35;;;6.13;;
36839;SDS011;24406;51.640;9.566;2023-07-22T12:46:15;6.30;;;5.72;;
36839;SDS011;24406;51.640;9.566;2023-07-22T12:51:17;5.85;;;5.35;;
36839;SDS011;24406;51.640;9.566;2023-07-22T12:56:18;7.60;;;5.80;;
36839;SDS011;24406;51.640;9.566;2023-07-22T13:01:21;6.15;;;5.60;;
36839;SDS011;24406;51.640;9.566;2023-07-22T13:06:22;7.78;;;5.13;;
36839;SDS011;24406;51.640;9.566;2023-07-22T13:11:24;6.30;;;5.80;;
36839;SDS011;24406;51.640;9.566;2023-07-22T13:16:27;6.57;;;5.53;;
36839;SDS011;24406;51.640;9.566;2023-07-22T13:21:28;6.50;;;5.28;;
36839;SDS011;24406;51.640;9.566;2023-07-22T13:26:30;5.70;;;5.28;;
36839;SDS011;24406;51.640;9.566;2023-07-22T13:31:33;5.75;;;5.25;;
36839;SDS011;24406;51.640;9.566;2023-07-22T13:36:34;5.22;;;4.72;;
36839;SDS011;24406;51.640;9.566;2023-07-22T13:41:36;6.78;;;5.18;;
36839;SDS011;24406;51.640;9.566;2023-07-22T13:46:39;5.38;;;4.93;;
36839;SDS011;24406;51.640;9.566;2023-07-22T13:51:40;4.28;;;3.97;;
36839;SDS011;24406;51.640;9.566;2023-07-22T13:56:42;5.32;;;4.80;;
36839;SDS011;24406;51.640;9.566;2023-07-22T14:01:47;4.80;;;3.60;;
36839;SDS011;24406;51.640;9.566;2023-07-22T14:06:48;4.30;;;3.90;;
36839;SDS011;24406;51.640;9.566;2023-07-22T14:11:50;4.50;;;4.05;;
36839;SDS011;24406;51.640;9.566;2023-07-22T14:16:53;4.30;;;3.85;;
36839;SDS011;24406;51.640;9.566;2023-07-22T14:21:54;4.07;;;3.78;;
36839;SDS011;24406;51.640;9.566;2023-07-22T14:26:56;3.70;;;3.40;;
36839;SDS011;24406;51.640;9.566;2023-07-22T14:31:59;3.50;;;3.20;;
36839;SDS011;24406;51.640;9.566;2023-07-22T14:37:00;5.40;;;3.30;;
36839;SDS011;24406;51.640;9.566;2023-07-22T14:42:04;4.85;;;3.50;;
36839;SDS011;24406;51.640;9.566;2023-07-22T14:47:07;3.97;;;2.63;;
36839;SDS011;24406;51.640;9.566;2023-07-22T14:52:08;4.30;;;2.78;;
36839;SDS011;24406;51.640;9.566;2023-07-22T14:57:10;2.83;;;2.60;;
36839;SDS011;24406;51.640;9.566;2023-07-22T15:02:13;3.00;;;2.70;;
36839;SDS011;24406;51.640;9.566;2023-07-22T15:07:14;4.53;;;2.67;;
36839;SDS011;24406;51.640;9.566;2023-07-22T15:12:16;3.65;;;2.47;;
36839;SDS011;24406;51.640;9.566;2023-07-22T15:17:19;4.78;;;4.38;;
36839;SDS011;24406;51.640;9.566;2023-07-22T15:22:20;3.67;;;3.38;;
36839;SDS011;24406;51.640;9.566;2023-07-22T15:27:22;3.95;;;3.65;;
36839;SDS011;24406;51.640;9.566;2023-07-22T15:32:25;3.83;;;3.45;;
36839;SDS011;24406;51.640;9.566;2023-07-22T15:37:26;5.15;;;3.50;;
36839;SDS011;24406;51.640;9.566;2023-07-22T15:42:28;3.92;;;3.63;;
36839;SDS011;24406;51.640;9.566;2023-07-22T15:47:30;5.13;;;3.22;;
36839;SDS011;24406;51.640;9.566;2023-07-22T15:52:32;3.95;;;3.40;;
36839;SDS011;24406;51.640;9.566;2023-07-22T15:57:33;3.35;;;3.10;;
36839;SDS011;24406;51.640;9.566;2023-07-22T16:02:37;2.92;;;2.67;;
36839;SDS011;24406;51.640;9.566;2023-07-22T16:07:39;4.35;;;3.30;;
36839;SDS011;24406;51.640;9.566;2023-07-22T16:17:57;3.33;;;3.00;;
36839;SDS011;24406;51.640;9.566;2023-07-22T16:22:59;4.18;;;3.05;;
36839;SDS011;24406;51.640;9.566;2023-07-22T16:28:00;4.03;;;3.40;;
36839;SDS011;24406;51.640;9.566;2023-07-22T16:33:03;3.42;;;3.13;;
36839;SDS011;24406;51.640;9.566;2023-07-22T16:38:05;3.53;;;3.22;;
36839;SDS011;24406;51.640;9.566;2023-07-22T16:43:07;4.10;;;3.25;;
36839;SDS011;24406;51.640;9.566;2023-07-22T16:48:09;3.67;;;3.30;;
36839;SDS011;24406;51.640;9.566;2023-07-22T16:53:11;3.47;;;3.17;;
36839;SDS011;24406;51.640;9.566;2023-07-22T16:58:13;5.80;;;3.70;;
36839;SDS011;24406;51.640;9.566;2023-07-22T17:03:17;6.95;;;3.45;;
36839;SDS011;24406;51.640;9.566;2023-07-22T17:08:18;3.83;;;3.42;;
36839;SDS011;24406;51.640;9.566;2023-07-22T17:13:20;3.80;;;3.20;;
36839;SDS011;24406;51.640;9.566;2023-07-22T17:18:23;4.03;;;3.63;;
36839;SDS011;24406;51.640;9.566;2023-07-22T17:23:25;3.75;;;3.45;;
36839;SDS011;24406;51.640;9.566;2023-07-22T17:28:26;6.60;;;3.45;;
36839;SDS011;24406;51.640;9.566;2023-07-22T17:33:29;4.95;;;3.42;;
36839;SDS011;24406;51.640;9.566;2023-07-22T17:38:30;3.92;;;3.53;;
36839;SDS011;24406;51.640;9.566;2023-07-22T17:43:32;4.00;;;3.70;;
36839;SDS011;24406;51.640;9.566;2023-07-22T17:48:35;4.25;;;3.22;;
36839;SDS011;24406;51.640;9.566;2023-07-22T17:53:36;3.75;;;3.22;;
36839;SDS011;24406;51.640;9.566;2023-07-22T17:58:38;4.82;;;3.40;;
36839;SDS011;24406;51.640;9.566;2023-07-22T18:03:41;3.13;;;2.92;;
36839;SDS011;24406;51.640;9.566;2023-07-22T18:08:44;4.25;;;3.85;;
36839;SDS011;24406;51.640;9.566;2023-07-22T18:13:45;4.78;;;3.47;;
36839;SDS011;24406;51.640;9.566;2023-07-22T18:18:50;4.35;;;3.95;;
36839;SDS011;24406;51.640;9.566;2023-07-22T18:23:52;4.00;;;3.70;;
36839;SDS011;24406;51.640;9.566;2023-07-22T18:28:56;4.00;;;3.55;;
36839;SDS011;24406;51.640;9.566;2023-07-22T18:33:59;5.00;;;4.40;;
36839;SDS011;24406;51.640;9.566;2023-07-22T18:39:00;5.18;;;3.85;;
36839;SDS011;24406;51.640;9.566;2023-07-22T18:44:03;7.47;;;3.92;;
36839;SDS011;24406;51.640;9.566;2023-07-22T18:49:16;5.28;;;4.45;;
36839;SDS011;24406;51.640;9.566;2023-07-22T18:54:27;4.85;;;4.45;;
36839;SDS011;24406;51.640;9.566;2023-07-22T18:59:29;5.05;;;3.97;;
36839;SDS011;24406;51.640;9.566;2023-07-22T19:04:39;4.65;;;4.05;;
36839;SDS011;24406;51.640;9.566;2023-07-22T19:09:41;6.03;;;4.00;;
36839;SDS011;24406;51.640;9.566;2023-07-22T19:14:42;8.60;;;4.10;;
36839;SDS011;24406;51.640;9.566;2023-07-22T19:19:45;5.32;;;3.90;;
36839;SDS011;24406;51.640;9.566;2023-07-22T19:24:47;5.15;;;4.45;;
36839;SDS011;24406;51.640;9.566;2023-07-22T19:29:49;8.13;;;5.05;;
36839;SDS011;24406;51.640;9.566;2023-07-22T19:34:52;6.40;;;4.40;;
36839;SDS011;24406;51.640;9.566;2023-07-22T19:39:53;6.07;;;4.35;;
36839;SDS011;24406;51.640;9.566;2023-07-22T19:44:55;5.97;;;4.53;;
36839;SDS011;24406;51.640;9.566;2023-07-22T19:49:58;3.83;;;3.40;;
36839;SDS011;24406;51.640;9.566;2023-07-22T19:54:59;10.05;;;4.60;;
36839;SDS011;24406;51.640;9.566;2023-07-22T20:00:01;5.70;;;4.93;;
36839;SDS011;24406;51.640;9.566;2023-07-22T20:05:13;5.53;;;4.88;;
36839;SDS011;24406;51.640;9.566;2023-07-22T20:10:15;6.93;;;4.57;;
36839;SDS011;24406;51.640;9.566;2023-07-22T20:15:17;4.68;;;4.18;;
36839;SDS011;24406;51.640;9.566;2023-07-22T20:20:19;4.70;;;4.07;;
36839;SDS011;24406;51.640;9.566;2023-07-22T20:25:21;29.63;;;22.40;;
36839;SDS011;24406;51.640;9.566;2023-07-22T20:30:23;5.47;;;4.78;;
36839;SDS011;24406;51.640;9.566;2023-07-22T20:35:27;5.70;;;4.97;;
36839;SDS011;24406;51.640;9.566;2023-07-22T20:40:29;5.25;;;4.72;;
36839;SDS011;24406;51.640;9.566;2023-07-22T20:45:31;5.95;;;4.68;;
36839;SDS011;24406;51.640;9.566;2023-07-22T20:50:35;6.45;;;4.93;;
36839;SDS011;24406;51.640;9.566;2023-07-22T20:55:38;6.38;;;4.65;;
36839;SDS011;24406;51.640;9.566;2023-07-22T21:00:41;5.45;;;4.15;;
36839;SDS011;24406;51.640;9.566;2023-07-22T21:05:53;7.40;;;4.53;;
36839;SDS011;24406;51.640;9.566;2023-07-22T22:25:50;11.15;;;4.75;;
36839;SDS011;24406;51.640;9.566;2023-07-22T23:29:33;7.90;;;5.50;;
36839;SDS011;24406;51.640;9.566;2023-07-22T23:34:44;9.55;;;6.07;;
36839;SDS011;24406;51.640;9.566;2023-07-22T23:39:48;7.40;;;5.40;;
36839;SDS011;24406;51.640;9.566;2023-07-22T23:44:54;5.68;;;5.03;;
36839;SDS011;24406;51.640;9.566;2023-07-22T23:49:56;6.55;;;5.70;;
36839;SDS011;24406;51.640;9.566;2023-07-22T23:54:58;6.57;;;5.90;;
